createdAt,value
2019-02-26T00:02:00.475Z,0.46
2019-02-26T00:04:34.000Z,0.48
2019-02-26T00:07:05.827Z,0.51
2019-02-26T00:09:36.674Z,0.53
2019-02-26T00:12:07.563Z,0.56
2019-02-26T00:14:38.475Z,0.55
2019-02-26T00:17:11.183Z,0.55
2019-02-26T00:19:41.903Z,0.54
2019-02-26T00:22:13.795Z,0.55
2019-02-26T00:24:46.603Z,0.52
2019-02-26T00:27:17.542Z,0.48
2019-02-26T00:29:49.254Z,0.50
2019-02-26T00:32:21.053Z,0.47
2019-02-26T00:34:53.146Z,0.41
2019-02-26T00:37:26.270Z,0.39
2019-02-26T00:39:57.220Z,0.34
2019-02-26T00:42:28.852Z,0.33
2019-02-26T00:45:02.951Z,0.29
2019-02-26T00:47:34.467Z,0.24
2019-02-26T00:50:09.660Z,0.27
2019-02-26T00:52:41.359Z,0.15
2019-02-26T00:55:12.863Z,0.06
2019-02-26T00:57:43.698Z,0.00
2019-02-26T01:00:16.105Z,0.04
2019-02-26T01:02:46.941Z,0.03
2019-02-26T01:05:17.877Z,-0.03
2019-02-26T01:07:50.256Z,-0.09
2019-02-26T01:10:23.459Z,-0.13
2019-02-26T01:12:54.050Z,-0.21
2019-02-26T01:15:25.004Z,-0.23
2019-02-26T01:17:57.151Z,-0.26
2019-02-26T01:20:30.197Z,-0.29
2019-02-26T01:23:00.978Z,-0.35
2019-02-26T01:25:31.861Z,-0.34
2019-02-26T01:28:02.716Z,-0.36
2019-02-26T01:30:36.022Z,-0.35
2019-02-26T01:33:08.004Z,-0.25
2019-02-26T01:35:38.709Z,-0.23
2019-02-26T01:38:09.538Z,-0.28
2019-02-26T01:40:43.641Z,-0.30
2019-02-26T01:43:12.930Z,-0.40
2019-02-26T01:45:45.757Z,-0.47
2019-02-26T01:48:18.502Z,-0.49
2019-02-26T01:50:48.876Z,-0.51
2019-02-26T01:53:21.408Z,-0.57
2019-02-26T01:55:52.536Z,-0.66
2019-02-26T01:58:23.406Z,-0.68
2019-02-26T02:00:55.568Z,-0.71
2019-02-26T02:03:28.045Z,-0.77
2019-02-26T02:05:59.350Z,-0.82
2019-02-26T02:08:30.226Z,-0.83
2019-02-26T02:11:02.401Z,-0.87
2019-02-26T02:13:35.663Z,-0.88
2019-02-26T02:16:06.801Z,-0.87
2019-02-26T02:18:38.857Z,-0.84
2019-02-26T02:21:09.688Z,-0.86
2019-02-26T02:23:42.175Z,-0.92
2019-02-26T02:26:13.902Z,-0.94
2019-02-26T02:28:45.770Z,-0.89
2019-02-26T02:31:16.651Z,-0.91
2019-02-26T02:33:50.189Z,-0.91
2019-02-26T02:36:23.029Z,-0.88
2019-02-26T02:38:53.582Z,-0.95
2019-02-26T02:41:24.431Z,-0.98
2019-02-26T02:43:55.293Z,-0.99
2019-02-26T02:46:26.153Z,-1.00
2019-02-26T02:48:57.015Z,-0.93
2019-02-26T02:51:28.781Z,-0.94
2019-02-26T02:54:00.455Z,-0.91
2019-02-26T02:56:33.216Z,-0.95
2019-02-26T02:59:05.967Z,-0.98
2019-02-26T03:01:36.465Z,-1.01
2019-02-26T03:04:07.324Z,-0.86
2019-02-26T03:06:38.755Z,-0.86
2019-02-26T03:09:15.270Z,-0.87
2019-02-26T03:11:49.436Z,-0.87
2019-02-26T03:14:19.135Z,-0.90
2019-02-26T03:16:51.386Z,-0.91
2019-02-26T03:19:22.552Z,-0.97
2019-02-26T03:21:55.002Z,-1.01
2019-02-26T03:24:28.382Z,-1.07
2019-02-26T03:26:58.553Z,-1.10
2019-02-26T03:29:29.410Z,-1.14
2019-02-26T03:32:00.270Z,-1.19
2019-02-26T03:34:31.115Z,-1.14
2019-02-26T03:37:03.835Z,-1.14
2019-02-26T03:39:34.601Z,-1.14
2019-02-26T03:42:05.539Z,-1.18
2019-02-26T03:44:36.393Z,-1.21
2019-02-26T03:47:07.281Z,-1.18
2019-02-26T03:49:41.667Z,-1.18
2019-02-26T03:52:15.366Z,-1.25
2019-02-26T03:54:45.399Z,-1.27
2019-02-26T03:57:16.851Z,-1.29
2019-02-26T03:59:48.636Z,-1.30
2019-02-26T04:02:20.906Z,-1.30
2019-02-26T04:04:54.395Z,-1.29
2019-02-26T04:07:26.045Z,-1.33
2019-02-26T04:09:58.541Z,-1.28
2019-02-26T04:12:29.553Z,-1.31
2019-02-26T04:15:00.422Z,-1.30
2019-02-26T04:17:33.522Z,-1.35
2019-02-26T04:20:05.576Z,-1.36
2019-02-26T04:22:40.164Z,-1.39
2019-02-26T04:25:35.475Z,-1.37
2019-02-26T04:28:19.675Z,-1.41
2019-02-26T04:30:56.567Z,-1.37
2019-02-26T04:34:05.363Z,-1.39
2019-02-26T04:36:47.179Z,-1.45
2019-02-26T04:39:47.502Z,-1.51
2019-02-26T04:42:33.154Z,-1.54
2019-02-26T04:45:22.738Z,-1.58
2019-02-26T04:48:02.327Z,-1.57
2019-02-26T04:50:35.758Z,-1.49
2019-02-26T04:53:08.409Z,-1.46
2019-02-26T04:55:41.012Z,-1.38
2019-02-26T04:58:12.483Z,-1.42
2019-02-26T05:00:43.462Z,-1.44
2019-02-26T05:03:17.000Z,-1.49
2019-02-26T05:05:51.408Z,-1.51
2019-02-26T05:08:19.444Z,-1.47
2019-02-26T05:10:52.474Z,-1.46
2019-02-26T05:13:25.247Z,-1.41
2019-02-26T05:15:55.446Z,-1.35
2019-02-26T05:18:28.403Z,-1.32
2019-02-26T05:20:59.753Z,-1.35
2019-02-26T05:23:33.576Z,-1.35
2019-02-26T05:26:05.613Z,-1.36
2019-02-26T05:28:37.754Z,-1.39
2019-02-26T05:31:13.884Z,-1.44
2019-02-26T05:33:42.356Z,-1.44
2019-02-26T05:36:15.085Z,-1.45
2019-02-26T05:38:45.786Z,-1.47
2019-02-26T05:41:16.640Z,-1.50
2019-02-26T05:43:52.074Z,-1.44
2019-02-26T05:46:22.028Z,-1.40
2019-02-26T05:48:52.646Z,-1.40
2019-02-26T05:51:24.582Z,-1.38
2019-02-26T05:53:56.071Z,-1.35
2019-02-26T05:56:26.991Z,-1.34
2019-02-26T05:59:02.086Z,-1.32
2019-02-26T06:01:30.420Z,-1.28
2019-02-26T06:04:04.113Z,-1.19
2019-02-26T06:06:33.873Z,-1.19
2019-02-26T06:09:07.757Z,-1.18
2019-02-26T06:11:41.675Z,-1.17
2019-02-26T06:14:12.677Z,-1.22
2019-02-26T06:16:45.552Z,-1.26
2019-02-26T06:19:18.161Z,-1.30
2019-02-26T06:21:49.740Z,-1.36
2019-02-26T06:24:22.755Z,-1.38
2019-02-26T06:26:53.869Z,-1.36
2019-02-26T06:29:27.211Z,-1.19
2019-02-26T06:32:09.606Z,-1.07
2019-02-26T06:34:41.070Z,-1.02
2019-02-26T06:37:19.476Z,-1.08
2019-02-26T06:39:52.699Z,-0.91
2019-02-26T06:42:23.069Z,-0.75
2019-02-26T06:44:53.938Z,-0.67
2019-02-26T06:47:27.985Z,-0.56
2019-02-26T06:49:57.352Z,-0.40
2019-02-26T06:52:29.869Z,-0.27
2019-02-26T06:55:02.967Z,-0.13
2019-02-26T06:57:33.305Z,0.11
2019-02-26T07:00:06.643Z,0.34
2019-02-26T07:02:37.493Z,0.56
2019-02-26T07:05:10.790Z,0.79
2019-02-26T07:07:41.690Z,1.08
2019-02-26T07:10:18.474Z,1.33
2019-02-26T07:12:48.858Z,1.44
2019-02-26T07:15:19.278Z,1.70
2019-02-26T07:17:50.129Z,1.94
2019-02-26T07:20:20.987Z,2.16
2019-02-26T07:22:51.822Z,2.35
2019-02-26T07:25:22.740Z,2.41
2019-02-26T07:27:55.787Z,2.47
2019-02-26T07:33:05.414Z,2.19
2019-02-26T07:35:37.411Z,2.01
2019-02-26T07:38:09.583Z,2.09
2019-02-26T07:40:40.573Z,2.29
2019-02-26T07:43:12.747Z,2.67
2019-02-26T07:45:44.309Z,2.95
2019-02-26T07:48:18.565Z,3.14
2019-02-26T07:50:49.045Z,3.14
2019-02-26T07:53:22.681Z,3.42
2019-02-26T07:55:53.107Z,3.83
2019-02-26T07:58:24.073Z,4.34
2019-02-26T08:00:54.953Z,4.49
2019-02-26T08:03:26.852Z,4.64
2019-02-26T08:05:59.444Z,4.73
2019-02-26T08:08:31.456Z,5.07
2019-02-26T08:11:02.764Z,5.70
2019-02-26T08:13:34.807Z,6.18
2019-02-26T08:16:06.765Z,7.07
2019-02-26T08:18:37.667Z,7.34
2019-02-26T08:21:08.692Z,7.76
2019-02-26T08:23:41.276Z,7.68
2019-02-26T08:26:12.235Z,7.91
2019-02-26T08:28:44.069Z,7.82
2019-02-26T08:31:17.857Z,7.93
2019-02-26T08:33:51.531Z,8.22
2019-02-26T08:36:21.459Z,8.33
2019-02-26T08:38:56.433Z,8.55
2019-02-26T08:41:25.231Z,8.86
2019-02-26T08:43:56.908Z,9.48
2019-02-26T08:46:28.797Z,9.97
2019-02-26T08:49:08.111Z,10.50
2019-02-26T08:51:32.344Z,10.92
2019-02-26T08:54:03.384Z,11.51
2019-02-26T08:56:36.378Z,11.95
2019-02-26T08:59:06.998Z,12.33
2019-02-26T09:01:37.942Z,12.45
2019-02-26T09:04:08.859Z,12.55
2019-02-26T09:06:39.882Z,12.48
2019-02-26T09:09:10.823Z,12.53
2019-02-26T09:11:41.723Z,13.02
2019-02-26T09:14:14.238Z,13.50
2019-02-26T09:16:47.690Z,14.21
2019-02-26T09:19:17.913Z,14.32
2019-02-26T09:21:50.542Z,14.35
2019-02-26T09:24:21.587Z,14.16
2019-02-26T09:26:54.709Z,14.11
2019-02-26T09:29:25.477Z,14.06
2019-02-26T09:31:56.356Z,15.05
2019-02-26T09:34:29.316Z,15.56
2019-02-26T09:37:01.315Z,16.12
2019-02-26T09:39:36.003Z,15.78
2019-02-26T09:42:06.500Z,16.19
2019-02-26T09:44:38.422Z,16.41
2019-02-26T09:47:09.462Z,17.18
2019-02-26T09:49:40.489Z,18.04
2019-02-26T09:52:11.380Z,18.16
2019-02-26T09:54:42.908Z,18.74
2019-02-26T09:57:17.577Z,18.62
2019-02-26T09:59:49.526Z,18.40
2019-02-26T10:02:21.960Z,18.42
2019-02-26T10:04:54.459Z,19.04
2019-02-26T10:07:26.204Z,19.24
2019-02-26T10:10:00.327Z,19.11
2019-02-26T10:12:32.151Z,19.25
2019-02-26T10:15:05.278Z,19.67
2019-02-26T10:17:38.052Z,20.15
2019-02-26T10:20:28.409Z,20.08
2019-02-26T10:23:00.659Z,20.24
2019-02-26T10:25:31.891Z,20.33
2019-02-26T10:28:08.773Z,20.72
2019-02-26T10:30:38.896Z,20.95
2019-02-26T10:33:09.117Z,20.48
2019-02-26T10:35:44.378Z,20.41
2019-02-26T10:38:12.992Z,21.05
2019-02-26T10:40:53.422Z,21.81
2019-02-26T10:43:16.751Z,22.09
2019-02-26T10:45:50.035Z,22.09
2019-02-26T10:48:24.451Z,22.74
2019-02-26T10:50:53.142Z,23.07
2019-02-26T10:53:24.141Z,23.07
2019-02-26T10:55:55.214Z,23.48
2019-02-26T10:58:26.189Z,23.68
2019-02-26T11:00:59.353Z,23.15
2019-02-26T11:03:30.109Z,23.18
2019-02-26T11:06:01.430Z,24.12
2019-02-26T11:08:34.970Z,24.07
2019-02-26T11:11:07.408Z,24.41
2019-02-26T11:13:40.724Z,24.05
2019-02-26T11:16:10.570Z,23.46
2019-02-26T11:18:42.744Z,24.47
2019-02-26T11:21:14.384Z,25.45
2019-02-26T11:23:46.402Z,25.75
2019-02-26T11:26:18.781Z,25.14
2019-02-26T11:28:49.758Z,25.40
2019-02-26T11:31:25.321Z,26.51
2019-02-26T11:33:56.433Z,26.55
2019-02-26T11:36:38.977Z,25.68
2019-02-26T11:39:12.060Z,26.02
2019-02-26T11:41:43.205Z,26.99
2019-02-26T11:44:16.483Z,26.18
2019-02-26T11:46:49.492Z,26.65
2019-02-26T11:49:21.661Z,26.65
2019-02-26T11:51:52.429Z,26.10
2019-02-26T11:54:23.541Z,26.94
2019-02-26T11:56:55.002Z,27.21
2019-02-26T11:59:26.130Z,27.21
2019-02-26T12:01:59.000Z,27.41
2019-02-26T12:04:30.014Z,27.41
2019-02-26T12:07:03.660Z,27.00
2019-02-26T12:09:37.534Z,26.52
2019-02-26T12:12:09.203Z,26.84
2019-02-26T12:14:41.158Z,27.17
2019-02-26T12:17:12.574Z,27.66
2019-02-26T12:19:43.585Z,26.71
2019-02-26T12:22:14.617Z,25.68
2019-02-26T12:24:47.794Z,25.06
2019-02-26T12:27:20.792Z,25.06
2019-02-26T12:29:52.287Z,26.43
2019-02-26T12:32:24.981Z,27.20
2019-02-26T12:34:56.891Z,25.60
2019-02-26T12:37:27.907Z,26.13
2019-02-26T12:39:59.147Z,26.44
2019-02-26T12:42:30.121Z,25.50
2019-02-26T12:45:04.382Z,26.28
2019-02-26T12:47:33.861Z,25.55
2019-02-26T12:50:09.684Z,25.20
2019-02-26T12:52:42.328Z,25.75
2019-02-26T12:55:14.800Z,25.77
2019-02-26T12:57:59.455Z,24.07
2019-02-26T13:00:30.766Z,22.97
2019-02-26T13:03:05.406Z,22.99
2019-02-26T13:05:35.333Z,23.95
2019-02-26T13:08:10.084Z,24.72
2019-02-26T13:10:42.419Z,24.95
2019-02-26T13:13:12.953Z,24.65
2019-02-26T13:15:44.371Z,25.38
2019-02-26T13:18:15.693Z,26.61
2019-02-26T13:20:52.144Z,27.30
2019-02-26T13:23:21.614Z,27.30
2019-02-26T13:25:52.451Z,28.44
2019-02-26T13:28:29.311Z,28.44
2019-02-26T13:31:01.371Z,27.52
2019-02-26T13:33:36.909Z,27.30
2019-02-26T13:36:04.688Z,27.48
2019-02-26T13:38:44.505Z,28.05
2019-02-26T13:41:25.146Z,27.75
2019-02-26T13:43:40.557Z,26.78
2019-02-26T13:46:11.759Z,26.32
2019-02-26T13:48:42.909Z,26.22
2019-02-26T13:51:14.034Z,25.34
2019-02-26T13:53:45.070Z,24.70
2019-02-26T13:56:16.270Z,25.34
2019-02-26T13:58:47.316Z,25.38
2019-02-26T14:01:18.360Z,25.78
2019-02-26T14:03:49.414Z,25.69
2019-02-26T14:06:20.584Z,25.67
2019-02-26T14:08:51.708Z,25.66
2019-02-26T14:11:22.880Z,26.49
2019-02-26T14:13:53.952Z,26.32
2019-02-26T14:16:25.208Z,26.57
2019-02-26T14:18:56.672Z,26.53
2019-02-26T14:21:27.740Z,26.02
2019-02-26T14:23:58.896Z,26.03
2019-02-26T14:29:34.670Z,25.17
2019-02-26T14:32:05.799Z,25.45
2019-02-26T14:34:36.998Z,25.45
2019-02-26T14:37:07.968Z,25.65
2019-02-26T14:39:39.090Z,25.80
2019-02-26T14:42:10.078Z,26.14
2019-02-26T14:44:41.274Z,26.14
2019-02-26T14:47:12.485Z,25.54
2019-02-26T14:49:43.607Z,24.13
2019-02-26T14:52:14.829Z,23.53
2019-02-26T14:54:45.929Z,24.44
2019-02-26T14:57:17.115Z,24.44
2019-02-26T14:59:48.154Z,24.85
2019-02-26T15:02:19.103Z,25.00
2019-02-26T15:04:49.988Z,25.00
2019-02-26T15:07:21.350Z,25.51
2019-02-26T15:09:52.352Z,25.93
2019-02-26T15:12:23.472Z,25.61
2019-02-26T15:14:54.517Z,25.25
2019-02-26T15:17:28.305Z,25.52
2019-02-26T15:19:59.363Z,25.52
2019-02-26T15:22:30.416Z,24.33
2019-02-26T15:25:01.469Z,23.26
2019-02-26T15:27:36.212Z,23.26
2019-02-26T15:30:08.564Z,25.04
2019-02-26T15:32:39.670Z,25.52
2019-02-26T15:35:10.889Z,25.71
2019-02-26T15:37:42.200Z,25.71
2019-02-26T15:40:17.984Z,25.55
2019-02-26T15:42:52.347Z,25.16
2019-02-26T15:45:24.243Z,24.88
2019-02-26T15:47:55.347Z,24.68
2019-02-26T15:50:26.524Z,24.68
2019-02-26T15:52:57.570Z,23.76
2019-02-26T15:55:32.297Z,23.56
2019-02-26T15:58:06.039Z,23.34
2019-02-26T16:00:37.985Z,23.10
2019-02-26T16:03:08.654Z,23.04
2019-02-26T16:05:40.472Z,22.53
2019-02-26T16:08:11.497Z,21.99
2019-02-26T16:10:42.582Z,21.28
2019-02-26T16:13:13.509Z,20.48
2019-02-26T16:15:44.480Z,19.87
2019-02-26T16:18:15.638Z,19.17
2019-02-26T16:20:46.706Z,18.62
2019-02-26T16:23:17.638Z,17.80
2019-02-26T16:25:48.540Z,17.80
2019-02-26T16:28:19.421Z,17.54
2019-02-26T16:30:50.356Z,17.28
2019-02-26T16:33:21.396Z,17.02
2019-02-26T16:35:52.448Z,16.75
2019-02-26T16:38:23.436Z,16.45
2019-02-26T16:40:54.482Z,16.13
2019-02-26T16:43:25.433Z,15.82
2019-02-26T16:45:56.326Z,15.48
2019-02-26T16:48:27.286Z,15.17
2019-02-26T16:50:58.312Z,14.85
2019-02-26T16:53:29.272Z,14.59
2019-02-26T16:56:00.596Z,14.30
2019-02-26T16:58:35.156Z,14.02
2019-02-26T17:01:05.945Z,13.79
2019-02-26T17:03:37.055Z,13.59
2019-02-26T17:06:08.057Z,13.44
2019-02-26T17:08:39.166Z,13.24
2019-02-26T17:11:13.324Z,12.99
2019-02-26T17:13:44.116Z,12.74
2019-02-26T17:16:15.511Z,12.51
2019-02-26T17:18:46.398Z,12.36
2019-02-26T17:21:17.429Z,12.25
2019-02-26T17:23:48.772Z,12.10
2019-02-26T17:26:19.709Z,11.98
2019-02-26T17:28:50.620Z,11.78
2019-02-26T17:31:21.648Z,11.59
2019-02-26T17:33:52.593Z,11.47
2019-02-26T17:36:23.565Z,11.35
2019-02-26T17:38:54.618Z,11.20
2019-02-26T17:41:25.508Z,11.10
2019-02-26T17:43:58.760Z,10.90
2019-02-26T17:46:29.148Z,10.74
2019-02-26T17:49:02.680Z,10.54
2019-02-26T17:51:32.725Z,10.32
2019-02-26T17:54:04.136Z,10.29
2019-02-26T17:56:35.753Z,10.27
2019-02-26T17:59:06.621Z,10.19
2019-02-26T18:01:37.641Z,10.07
2019-02-26T18:04:08.552Z,10.07
2019-02-26T18:06:39.590Z,9.93
2019-02-26T18:09:10.567Z,9.72
2019-02-26T18:11:41.496Z,9.53
2019-02-26T18:14:12.510Z,9.38
2019-02-26T18:16:43.473Z,9.28
2019-02-26T18:19:14.371Z,9.30
2019-02-26T18:21:45.321Z,9.18
2019-02-26T18:24:16.773Z,9.04
2019-02-26T18:26:48.073Z,8.92
2019-02-26T18:29:19.013Z,8.94
2019-02-26T18:31:49.995Z,8.82
2019-02-26T18:34:20.933Z,8.68
2019-02-26T18:36:52.035Z,8.62
2019-02-26T18:39:23.102Z,8.55
2019-02-26T18:41:54.169Z,8.54
2019-02-26T18:44:25.133Z,8.26
2019-02-26T18:46:56.211Z,8.02
2019-02-26T18:49:48.911Z,7.88
2019-02-26T18:52:30.507Z,7.75
2019-02-26T18:55:01.568Z,7.83
2019-02-26T18:57:32.564Z,7.78
2019-02-26T19:00:05.757Z,7.64
2019-02-26T19:02:36.805Z,7.53
2019-02-26T19:05:10.090Z,7.34
2019-02-26T19:07:43.137Z,7.20
2019-02-26T19:10:19.408Z,7.05
2019-02-26T19:12:51.187Z,6.90
2019-02-26T19:15:23.955Z,6.83
2019-02-26T19:17:56.894Z,6.82
2019-02-26T19:20:30.406Z,6.86
2019-02-26T19:23:02.099Z,6.93
2019-02-26T19:25:33.438Z,6.88
2019-02-26T19:28:04.726Z,6.82
2019-02-26T19:30:37.003Z,6.70
2019-02-26T19:33:08.395Z,6.65
2019-02-26T19:35:40.462Z,6.65
2019-02-26T19:38:11.560Z,6.58
2019-02-26T19:40:45.854Z,6.50
2019-02-26T19:43:16.990Z,6.22
2019-02-26T19:45:48.104Z,6.02
2019-02-26T19:48:19.026Z,5.91
2019-02-26T19:50:50.099Z,5.82
2019-02-26T19:53:24.149Z,5.70
2019-02-26T19:55:55.212Z,5.64
2019-02-26T19:58:26.127Z,5.60
2019-02-26T20:00:57.186Z,5.59
2019-02-26T20:03:39.285Z,5.58
2019-02-26T20:06:00.881Z,5.48
2019-02-26T20:08:32.265Z,5.38
2019-02-26T20:11:03.290Z,5.29
2019-02-26T20:13:34.661Z,5.25
2019-02-26T20:16:05.628Z,5.19
2019-02-26T20:18:36.524Z,5.19
2019-02-26T20:21:07.645Z,5.14
2019-02-26T20:23:41.856Z,5.17
2019-02-26T20:26:16.203Z,5.19
2019-02-26T20:28:44.297Z,5.15
2019-02-26T20:31:15.314Z,5.15
2019-02-26T20:33:46.437Z,5.08
2019-02-26T20:36:17.845Z,5.05
2019-02-26T20:38:49.335Z,4.90
2019-02-26T20:41:22.258Z,4.77
2019-02-26T20:43:53.482Z,4.74
2019-02-26T20:46:25.136Z,4.83
2019-02-26T20:48:56.973Z,4.73
2019-02-26T20:51:27.934Z,4.61
2019-02-26T20:53:58.922Z,4.66
2019-02-26T20:56:31.019Z,4.80
2019-02-26T20:59:02.537Z,4.77
2019-02-26T21:01:33.471Z,4.60
2019-02-26T21:04:04.496Z,4.53
2019-02-26T21:06:35.691Z,4.45
2019-02-26T21:09:07.680Z,4.40
2019-02-26T21:11:39.074Z,4.36
2019-02-26T21:14:10.260Z,4.29
2019-02-26T21:16:41.192Z,4.19
2019-02-26T21:19:12.891Z,4.18
2019-02-26T21:21:44.240Z,4.30
2019-02-26T21:24:15.238Z,4.44
2019-02-26T21:26:46.213Z,4.59
2019-02-26T21:29:17.179Z,4.62
2019-02-26T21:31:49.710Z,4.68
2019-02-26T21:34:21.647Z,4.79
2019-02-26T21:36:52.747Z,4.87
2019-02-26T21:39:23.661Z,4.92
2019-02-26T21:41:56.686Z,4.95
2019-02-26T21:44:27.992Z,5.01
2019-02-26T21:46:59.380Z,5.09
2019-02-26T21:49:30.325Z,5.13
2019-02-26T21:52:01.373Z,5.13
2019-02-26T21:54:32.509Z,5.12
2019-02-26T21:57:03.806Z,5.17
2019-02-26T21:59:34.877Z,5.16
2019-02-26T22:02:06.051Z,5.10
2019-02-26T22:04:37.018Z,5.10
2019-02-26T22:07:07.879Z,5.07
2019-02-26T22:09:38.815Z,5.06
2019-02-26T22:12:09.799Z,4.97
2019-02-26T22:14:40.676Z,4.88
2019-02-26T22:17:11.671Z,4.75
2019-02-26T22:19:42.592Z,4.66
2019-02-26T22:22:13.505Z,4.55
2019-02-26T22:24:46.112Z,4.45
2019-02-26T22:27:17.109Z,4.39
2019-02-26T22:29:48.730Z,4.38
2019-02-26T22:32:19.835Z,4.38
2019-02-26T22:34:53.587Z,4.38
2019-02-26T22:37:23.590Z,4.43
2019-02-26T22:39:55.894Z,4.49
2019-02-26T22:42:27.386Z,4.54
2019-02-26T22:44:58.289Z,4.59
2019-02-26T22:47:29.229Z,4.71
2019-02-26T22:50:00.153Z,4.80
2019-02-26T22:52:31.351Z,4.88
2019-02-26T22:55:02.270Z,4.97
2019-02-26T22:57:33.220Z,5.04
2019-02-26T23:00:05.895Z,5.09
2019-02-26T23:02:40.638Z,5.11
2019-02-26T23:05:09.755Z,5.12
2019-02-26T23:07:40.721Z,5.07
2019-02-26T23:10:12.050Z,5.07
2019-02-26T23:12:43.164Z,5.06
2019-02-26T23:15:14.179Z,5.01
2019-02-26T23:17:46.429Z,4.92
2019-02-26T23:20:17.737Z,4.89
2019-02-26T23:22:49.271Z,4.90
2019-02-26T23:25:20.506Z,4.93
2019-02-26T23:27:51.560Z,4.90
2019-02-26T23:30:24.950Z,4.91
2019-02-26T23:32:55.307Z,4.91
2019-02-26T23:35:26.302Z,4.86
2019-02-26T23:37:57.572Z,4.81
2019-02-26T23:40:28.582Z,4.77
2019-02-26T23:42:59.570Z,4.68
2019-02-26T23:45:30.756Z,4.57
2019-02-26T23:48:01.778Z,4.47
2019-02-26T23:50:32.770Z,4.33
2019-02-26T23:53:03.718Z,4.21
2019-02-26T23:55:34.606Z,4.12
2019-02-26T23:58:05.580Z,3.99
